Leesport, Pennsylvania
Current Conditions -  °F | °C
As of 10:54 PM on Saturday 22 Nov 2014 (Local Time) from KRDG Reporting Station
Clear Clear  
Wind Chill: 41°   Ceiling: Unl
Heat Index: 41°   Visibility: 10mi
Dew Point: 21°   Wind: 3mph
Humidity: 45%   Direction: 240°WSW
Pressure: 30.22"   Gusts: NA
Location:  40.45°N, 75.97°W
Report Text: KRDG 230354Z AUTO 24003KT 10SM CLR 05/M06 A3022 RMK AO2 SLP242 T00501061
Loading
Personal Weather Stations






























Interactive Weather Map New forecast layout! Learn more

10-Day Weather Forecast

Advertisements
Track Severe Weather on mobile